Time;durP1;ratioP1;P1;durP2;ratioP2;P2;SDS_P1;SDS_P2;PMS_P1;PMS_P2;Temp;Humidity;BMP_temperature;BMP_pressure;BME280_temperature;BME280_humidity;BME280_pressure;Samples;Min_cycle;Max_cycle;Signal;HPM_P1;HPM_P2
2021/05/23 00:01:04;;;;;;;1.52;1.42;;;;;;;;;;5052274;28;20020;-86
2021/05/23 00:03:31;;;;;;;2.80;1.40;;;;;;;;;;5052365;28;20024;-86
2021/05/23 00:05:57;;;;;;;7.22;1.50;;;;;;;;;;5063570;28;20072;-87
2021/05/23 00:08:23;;;;;;;5.90;2.00;;;;;;;;;;5072118;28;20533;-86
2021/05/23 00:10:51;;;;;;;2.65;1.40;;;;;;;;;;5064270;28;20021;-86
2021/05/23 00:13:18;;;;;;;4.45;1.92;;;;;;;;;;5052885;28;20115;-86
2021/05/23 00:15:59;;;;;;;4.18;2.17;;;;;;;;;;5072381;28;20380;-86
2021/05/23 00:18:26;;;;;;;1.75;1.30;;;;;;;;;;5058638;28;20622;-86
2021/05/23 00:20:52;;;;;;;2.65;1.30;;;;;;;;;;5072119;28;20020;-86
2021/05/23 00:23:18;;;;;;;4.10;1.50;;;;;;;;;;5072014;28;20037;-86
2021/05/23 00:25:45;;;;;;;3.38;1.63;;;;;;;;;;5071317;28;20658;-86
2021/05/23 00:28:11;;;;;;;2.35;1.48;;;;;;;;;;5084882;28;20049;-86
2021/05/23 00:30:38;;;;;;;6.93;2.88;;;;;;;;;;5072016;28;20060;-86
2021/05/23 00:33:05;;;;;;;2.90;2.08;;;;;;;;;;5059937;28;20147;-86
2021/05/23 00:35:31;;;;;;;2.60;1.70;;;;;;;;;;5052131;28;20226;-86
2021/05/23 00:37:57;;;;;;;2.42;1.85;;;;;;;;;;5052449;28;20523;-86
2021/05/23 00:40:23;;;;;;;2.50;1.60;;;;;;;;;;5052057;28;20025;-86
2021/05/23 00:42:49;;;;;;;2.78;1.77;;;;;;;;;;5051866;28;20025;-86
2021/05/23 00:45:16;;;;;;;2.20;1.70;;;;;;;;;;5052166;28;20036;-86
2021/05/23 00:47:43;;;;;;;4.88;1.73;;;;;;;;;;5053075;28;20112;-87
2021/05/23 00:50:11;;;;;;;2.65;2.05;;;;;;;;;;5057267;28;20032;-86
2021/05/23 00:52:37;;;;;;;5.05;2.30;;;;;;;;;;5052215;28;20032;-86
2021/05/23 00:55:04;;;;;;;5.40;1.65;;;;;;;;;;5056439;28;20446;-87
2021/05/23 00:57:30;;;;;;;4.90;2.38;;;;;;;;;;5071876;28;20121;-86
2021/05/23 00:59:57;;;;;;;3.47;1.73;;;;;;;;;;5054802;28;20025;-87
2021/05/23 01:02:39;;;;;;;3.25;2.08;;;;;;;;;;5052206;28;20231;-86
2021/05/23 01:05:06;;;;;;;1.92;1.70;;;;;;;;;;5051786;28;20044;-86
2021/05/23 01:07:32;;;;;;;5.05;2.47;;;;;;;;;;5065583;28;20025;-86
2021/05/23 01:10:05;;;;;;;1.90;1.55;;;;;;;;;;5057272;28;20079;-86
2021/05/23 01:12:50;;;;;;;2.67;2.00;;;;;;;;;;5070281;28;20040;-86
2021/05/23 01:15:16;;;;;;;4.82;2.00;;;;;;;;;;5062587;28;20029;-86
2021/05/23 01:17:45;;;;;;;2.72;1.95;;;;;;;;;;5070093;28;20163;-86
2021/05/23 01:20:22;;;;;;;2.05;1.65;;;;;;;;;;5066737;28;20025;-86
2021/05/23 01:23:08;;;;;;;5.05;2.22;;;;;;;;;;5074965;28;20039;-86
2021/05/23 01:25:38;;;;;;;2.65;1.55;;;;;;;;;;5061598;28;20103;-86
2021/05/23 01:28:06;;;;;;;2.22;1.90;;;;;;;;;;5055490;28;20073;-86
2021/05/23 01:30:35;;;;;;;3.60;1.80;;;;;;;;;;5029242;28;20022;-86
2021/05/23 01:33:02;;;;;;;3.60;1.73;;;;;;;;;;5036400;28;20127;-86
2021/05/23 01:35:34;;;;;;;4.00;1.90;;;;;;;;;;5038231;28;20035;-86
2021/05/23 01:38:00;;;;;;;4.47;1.85;;;;;;;;;;5020544;28;20048;-86
2021/05/23 01:40:27;;;;;;;2.65;1.80;;;;;;;;;;5030184;28;20036;-86
2021/05/23 01:42:54;;;;;;;1.88;1.73;;;;;;;;;;5032996;28;20029;-86
2021/05/23 01:45:20;;;;;;;4.38;1.90;;;;;;;;;;5030484;28;20041;-86
2021/05/23 01:47:46;;;;;;;2.53;2.05;;;;;;;;;;5033328;28;20033;-86
2021/05/23 01:50:12;;;;;;;2.65;2.00;;;;;;;;;;5018388;28;20088;-86
2021/05/23 01:52:55;;;;;;;4.22;2.00;;;;;;;;;;5018498;28;20029;-86
2021/05/23 01:55:22;;;;;;;2.63;1.95;;;;;;;;;;5032474;28;20171;-86
2021/05/23 01:57:49;;;;;;;2.10;1.90;;;;;;;;;;5030351;28;20045;-86
2021/05/23 02:00:16;;;;;;;2.70;2.28;;;;;;;;;;5018369;28;20052;-86
2021/05/23 02:02:43;;;;;;;2.67;2.20;;;;;;;;;;5018125;28;20083;-86
2021/05/23 02:05:09;;;;;;;3.58;1.95;;;;;;;;;;5037556;28;20086;-86
2021/05/23 02:07:35;;;;;;;2.45;2.10;;;;;;;;;;5048172;28;20120;-86
2021/05/23 02:10:04;;;;;;;3.00;2.50;;;;;;;;;;5018454;28;20060;-86
2021/05/23 02:12:30;;;;;;;2.22;1.85;;;;;;;;;;5018150;28;20017;-86
2021/05/23 02:14:56;;;;;;;3.47;2.03;;;;;;;;;;5019356;28;20021;-86
2021/05/23 02:17:22;;;;;;;3.40;2.10;;;;;;;;;;5019217;28;20018;-86
2021/05/23 02:19:51;;;;;;;2.45;1.80;;;;;;;;;;5050189;28;20033;-86
2021/05/23 02:22:17;;;;;;;2.15;1.90;;;;;;;;;;5036097;28;20377;-86
2021/05/23 02:24:44;;;;;;;4.60;2.00;;;;;;;;;;5033001;28;20119;-86
2021/05/23 02:27:11;;;;;;;2.22;2.00;;;;;;;;;;5055046;28;20029;-86
2021/05/23 02:29:37;;;;;;;2.85;1.80;;;;;;;;;;5066000;28;20087;-86
2021/05/23 02:32:05;;;;;;;2.42;2.10;;;;;;;;;;5063186;28;20029;-86
2021/05/23 02:34:31;;;;;;;3.33;2.78;;;;;;;;;;5084104;28;20111;-86
2021/05/23 02:36:58;;;;;;;3.60;2.70;;;;;;;;;;5054051;28;20033;-86
2021/05/23 02:39:24;;;;;;;2.58;2.38;;;;;;;;;;5054036;28;20029;-86
2021/05/23 02:41:50;;;;;;;2.35;2.15;;;;;;;;;;5053887;28;20032;-86
2021/05/23 02:44:16;;;;;;;2.42;2.20;;;;;;;;;;5056127;28;20033;-86
2021/05/23 02:46:42;;;;;;;4.70;3.25;;;;;;;;;;5070448;28;20036;-86
2021/05/23 02:49:13;;;;;;;4.15;2.03;;;;;;;;;;5074982;28;20020;-86
2021/05/23 02:51:39;;;;;;;2.67;2.40;;;;;;;;;;5073861;28;20049;-86
2021/05/23 02:54:05;;;;;;;2.78;2.00;;;;;;;;;;5059379;28;20142;-86
2021/05/23 02:56:31;;;;;;;3.42;2.00;;;;;;;;;;5086038;28;20070;-86
2021/05/23 02:58:57;;;;;;;3.30;2.13;;;;;;;;;;5074751;28;20016;-86
2021/05/23 03:01:23;;;;;;;2.65;2.00;;;;;;;;;;5073453;28;20023;-86
2021/05/23 03:03:49;;;;;;;3.53;2.22;;;;;;;;;;5057201;28;20036;-86
2021/05/23 03:06:15;;;;;;;2.90;1.98;;;;;;;;;;5070352;28;20009;-86
2021/05/23 03:08:41;;;;;;;3.75;2.10;;;;;;;;;;5073136;28;20056;-86
2021/05/23 03:11:07;;;;;;;2.50;2.10;;;;;;;;;;5073526;28;20461;-86
2021/05/23 03:13:33;;;;;;;2.35;1.85;;;;;;;;;;5063243;28;20828;-86
2021/05/23 03:15:59;;;;;;;2.63;2.00;;;;;;;;;;5086723;28;20024;-86
2021/05/23 03:18:25;;;;;;;2.53;1.73;;;;;;;;;;5073164;28;20468;-86
2021/05/23 03:20:51;;;;;;;3.63;1.98;;;;;;;;;;5073348;28;20456;-86
2021/05/23 03:23:17;;;;;;;4.13;1.92;;;;;;;;;;5073232;28;20031;-86
2021/05/23 03:25:43;;;;;;;2.30;2.10;;;;;;;;;;5067788;28;20029;-86
2021/05/23 03:28:10;;;;;;;3.63;1.85;;;;;;;;;;5052668;28;20097;-86
2021/05/23 03:30:50;;;;;;;3.67;1.80;;;;;;;;;;5081171;27;20369;-48
2021/05/23 03:33:16;;;;;;;3.47;2.20;;;;;;;;;;5057980;28;20078;-47
2021/05/23 03:35:42;;;;;;;1.67;1.58;;;;;;;;;;5062746;28;20049;-47
2021/05/23 03:38:09;;;;;;;3.33;1.77;;;;;;;;;;5046352;28;20018;-48
2021/05/23 03:40:36;;;;;;;4.07;1.65;;;;;;;;;;5055662;28;20033;-51
2021/05/23 03:43:03;;;;;;;2.80;1.80;;;;;;;;;;5069146;28;20537;-51
2021/05/23 03:45:29;;;;;;;3.65;1.92;;;;;;;;;;5064249;28;20454;-50
2021/05/23 03:47:55;;;;;;;2.15;1.83;;;;;;;;;;5055823;28;20104;-52
2021/05/23 03:50:21;;;;;;;3.00;1.75;;;;;;;;;;5029554;28;20032;-49
2021/05/23 03:52:48;;;;;;;4.20;1.60;;;;;;;;;;5039092;28;20018;-47
2021/05/23 03:55:14;;;;;;;2.92;1.75;;;;;;;;;;5061576;28;20481;-51
2021/05/23 03:57:41;;;;;;;3.28;1.85;;;;;;;;;;5036384;28;20053;-51
2021/05/23 04:00:07;;;;;;;3.30;1.80;;;;;;;;;;5056062;28;20036;-47
2021/05/23 04:02:33;;;;;;;2.10;1.58;;;;;;;;;;5062878;28;20135;-46
2021/05/23 04:05:00;;;;;;;4.28;1.70;;;;;;;;;;5048799;28;20021;-47
2021/05/23 04:07:27;;;;;;;2.30;1.40;;;;;;;;;;5052664;28;20037;-47
2021/05/23 04:09:54;;;;;;;2.30;1.50;;;;;;;;;;5055276;28;20085;-49
2021/05/23 04:12:23;;;;;;;2.75;1.50;;;;;;;;;;5038575;28;20056;-48
2021/05/23 04:14:49;;;;;;;3.78;1.52;;;;;;;;;;5057449;28;20419;-50
2021/05/23 04:17:15;;;;;;;2.97;1.65;;;;;;;;;;5062933;28;20474;-49
2021/05/23 04:19:41;;;;;;;3.95;1.95;;;;;;;;;;5055763;28;20037;-47
2021/05/23 04:22:07;;;;;;;3.45;1.60;;;;;;;;;;5061462;28;20385;-50
2021/05/23 04:24:37;;;;;;;2.63;1.50;;;;;;;;;;5046872;28;20112;-52
2021/05/23 04:27:04;;;;;;;1.83;1.55;;;;;;;;;;5042738;28;20117;-49
2021/05/23 04:29:31;;;;;;;2.38;1.50;;;;;;;;;;5033596;28;20048;-48
2021/05/23 04:31:59;;;;;;;2.47;1.33;;;;;;;;;;5029197;28;20036;-50
2021/05/23 04:34:25;;;;;;;2.60;1.23;;;;;;;;;;5035073;28;20034;-48
2021/05/23 04:36:51;;;;;;;3.83;1.33;;;;;;;;;;5043279;28;20067;-48
2021/05/23 04:39:17;;;;;;;1.85;1.20;;;;;;;;;;5031670;28;20117;-49
2021/05/23 04:41:43;;;;;;;1.73;1.25;;;;;;;;;;5028629;28;20037;-46
2021/05/23 04:44:09;;;;;;;2.70;1.55;;;;;;;;;;5025674;28;20025;-48
2021/05/23 04:46:35;;;;;;;2.20;1.20;;;;;;;;;;5021866;28;20029;-49
2021/05/23 04:49:01;;;;;;;5.13;1.33;;;;;;;;;;5022005;28;20096;-47
2021/05/23 04:51:27;;;;;;;2.35;1.17;;;;;;;;;;5020498;28;20520;-49
2021/05/23 04:53:53;;;;;;;2.28;1.25;;;;;;;;;;5019533;28;20060;-48
2021/05/23 04:56:19;;;;;;;1.42;1.20;;;;;;;;;;5022579;28;20026;-48
2021/05/23 04:58:45;;;;;;;1.98;1.10;;;;;;;;;;5025201;28;20041;-51
2021/05/23 05:01:11;;;;;;;2.30;1.17;;;;;;;;;;5018886;28;20026;-51
2021/05/23 05:03:37;;;;;;;2.80;1.45;;;;;;;;;;5020948;28;20343;-50
2021/05/23 05:06:03;;;;;;;2.65;1.10;;;;;;;;;;5012367;28;20038;-48
2021/05/23 05:08:29;;;;;;;1.80;1.20;;;;;;;;;;5022817;28;20477;-50
2021/05/23 05:10:55;;;;;;;3.35;1.08;;;;;;;;;;5034168;28;20053;-47
2021/05/23 05:13:21;;;;;;;2.10;1.17;;;;;;;;;;5019974;28;20399;-48
2021/05/23 05:15:47;;;;;;;1.70;0.90;;;;;;;;;;5002622;28;20072;-48
2021/05/23 05:18:13;;;;;;;1.35;0.85;;;;;;;;;;5011054;28;20462;-48
2021/05/23 05:20:39;;;;;;;3.13;1.02;;;;;;;;;;5023312;28;20076;-47
2021/05/23 05:23:06;;;;;;;2.15;1.10;;;;;;;;;;5022638;28;20099;-47
2021/05/23 05:25:32;;;;;;;2.40;1.00;;;;;;;;;;5009278;28;20034;-47
2021/05/23 05:27:57;;;;;;;2.85;1.10;;;;;;;;;;5018530;28;20040;-47
2021/05/23 05:30:24;;;;;;;1.30;0.88;;;;;;;;;;5025420;28;20497;-48
2021/05/23 05:32:50;;;;;;;1.15;0.85;;;;;;;;;;5028011;28;20026;-49
2021/05/23 05:35:16;;;;;;;2.08;0.80;;;;;;;;;;5006983;28;20034;-49
2021/05/23 05:37:42;;;;;;;3.17;0.98;;;;;;;;;;5013596;28;20033;-48
2021/05/23 05:40:08;;;;;;;2.08;0.70;;;;;;;;;;5026909;28;20032;-49
2021/05/23 05:42:34;;;;;;;2.30;0.98;;;;;;;;;;5026301;28;20062;-50
2021/05/23 05:45:00;;;;;;;1.83;0.90;;;;;;;;;;5007236;28;20034;-48
2021/05/23 05:47:26;;;;;;;3.17;0.90;;;;;;;;;;5002203;28;20117;-49
2021/05/23 05:49:53;;;;;;;1.88;1.00;;;;;;;;;;5013809;28;20421;-47
2021/05/23 05:52:19;;;;;;;3.72;1.00;;;;;;;;;;5013922;28;20034;-51
2021/05/23 05:54:45;;;;;;;1.52;0.63;;;;;;;;;;5017517;28;20026;-48
2021/05/23 05:57:11;;;;;;;3.88;1.10;;;;;;;;;;5023178;28;20779;-47
2021/05/23 05:59:37;;;;;;;1.88;0.80;;;;;;;;;;5020191;28;20034;-47
2021/05/23 06:02:03;;;;;;;1.15;0.80;;;;;;;;;;5017573;28;20072;-49
2021/05/23 06:04:29;;;;;;;1.08;0.68;;;;;;;;;;5029030;28;20025;-52
2021/05/23 06:06:55;;;;;;;0.90;0.63;;;;;;;;;;5029534;28;20030;-51
2021/05/23 06:09:21;;;;;;;1.42;0.70;;;;;;;;;;5021851;28;20449;-50
2021/05/23 06:11:47;;;;;;;1.23;0.65;;;;;;;;;;5019562;28;20669;-52
2021/05/23 06:14:13;;;;;;;3.70;0.85;;;;;;;;;;5020114;28;20021;-50
2021/05/23 06:16:38;;;;;;;0.85;0.60;;;;;;;;;;5014166;28;20030;-50
2021/05/23 06:19:04;;;;;;;2.20;0.70;;;;;;;;;;5016477;28;20033;-47
2021/05/23 06:21:30;;;;;;;5.50;0.85;;;;;;;;;;5027332;28;20037;-47
2021/05/23 06:23:56;;;;;;;2.25;0.75;;;;;;;;;;5026544;28;20025;-47
2021/05/23 06:26:27;;;;;;;2.15;1.00;;;;;;;;;;5021178;28;20029;-49
2021/05/23 06:28:54;;;;;;;2.67;0.88;;;;;;;;;;5032157;28;20042;-47
2021/05/23 06:31:20;;;;;;;1.80;0.70;;;;;;;;;;5020562;28;20037;-50
2021/05/23 06:33:46;;;;;;;3.75;1.00;;;;;;;;;;5013519;28;20034;-48
2021/05/23 06:36:13;;;;;;;1.90;0.80;;;;;;;;;;5012061;28;20068;-51
2021/05/23 06:38:39;;;;;;;4.30;1.00;;;;;;;;;;5024770;28;20057;-51
2021/05/23 06:41:05;;;;;;;4.07;1.00;;;;;;;;;;5020841;28;20065;-51
2021/05/23 06:43:31;;;;;;;2.95;1.00;;;;;;;;;;5013008;28;20458;-47
2021/05/23 06:45:57;;;;;;;2.08;0.73;;;;;;;;;;5015831;28;20072;-49
2021/05/23 06:48:23;;;;;;;1.90;1.10;;;;;;;;;;5017228;28;20112;-50
2021/05/23 06:50:49;;;;;;;3.13;1.00;;;;;;;;;;5024395;28;20032;-48
2021/05/23 06:53:15;;;;;;;2.60;0.80;;;;;;;;;;5014019;28;20380;-47
2021/05/23 06:55:41;;;;;;;1.90;0.80;;;;;;;;;;5019283;28;20144;-47
2021/05/23 06:58:07;;;;;;;2.78;0.90;;;;;;;;;;5032131;28;20084;-47
2021/05/23 07:00:33;;;;;;;3.63;1.25;;;;;;;;;;5020800;28;20033;-47
2021/05/23 07:02:59;;;;;;;3.45;0.80;;;;;;;;;;5012898;28;20041;-48
2021/05/23 07:05:25;;;;;;;2.38;0.80;;;;;;;;;;5023452;28;20471;-47
2021/05/23 07:07:51;;;;;;;2.28;0.68;;;;;;;;;;5017251;28;20355;-48
2021/05/23 07:10:17;;;;;;;1.92;0.80;;;;;;;;;;5019658;28;20033;-53
2021/05/23 07:12:43;;;;;;;2.53;0.90;;;;;;;;;;5026624;28;20026;-54
2021/05/23 07:15:10;;;;;;;1.75;0.80;;;;;;;;;;5017297;28;20021;-54
2021/05/23 07:17:36;;;;;;;1.05;0.50;;;;;;;;;;5014760;28;20030;-49
2021/05/23 07:20:03;;;;;;;1.75;0.77;;;;;;;;;;5015211;28;20029;-52
2021/05/23 07:22:28;;;;;;;2.95;0.82;;;;;;;;;;5011099;28;20243;-52
2021/05/23 07:24:54;;;;;;;1.85;0.70;;;;;;;;;;5022806;28;20052;-51
2021/05/23 07:27:20;;;;;;;2.47;0.90;;;;;;;;;;5020943;28;20041;-53
2021/05/23 07:29:46;;;;;;;1.85;0.60;;;;;;;;;;5022279;28;20144;-54
2021/05/23 07:32:12;;;;;;;3.03;0.80;;;;;;;;;;5012866;28;20034;-48
2021/05/23 07:34:38;;;;;;;5.50;0.80;;;;;;;;;;5018586;28;20467;-48
2021/05/23 07:37:04;;;;;;;2.42;0.95;;;;;;;;;;5019164;28;20032;-50
2021/05/23 07:39:30;;;;;;;2.03;0.80;;;;;;;;;;5021652;28;20071;-50
2021/05/23 07:41:56;;;;;;;2.25;1.10;;;;;;;;;;5022629;28;20116;-48
2021/05/23 07:44:22;;;;;;;1.98;0.90;;;;;;;;;;5027095;28;20462;-50
2021/05/23 07:46:49;;;;;;;4.20;1.13;;;;;;;;;;5010040;28;20080;-53
2021/05/23 07:49:16;;;;;;;7.70;1.60;;;;;;;;;;5016506;28;20116;-51
2021/05/23 07:51:42;;;;;;;4.05;0.80;;;;;;;;;;5014004;28;20022;-54
2021/05/23 07:54:08;;;;;;;2.05;0.68;;;;;;;;;;5017380;28;20536;-52
2021/05/23 07:56:34;;;;;;;2.60;0.88;;;;;;;;;;5012832;28;20025;-50
2021/05/23 07:59:00;;;;;;;4.47;1.00;;;;;;;;;;5014068;28;20071;-50
2021/05/23 08:01:26;;;;;;;3.33;0.75;;;;;;;;;;5014185;28;20646;-55
2021/05/23 08:03:52;;;;;;;3.60;1.30;;;;;;;;;;5016889;28;20116;-49
2021/05/23 08:06:18;;;;;;;2.75;1.13;;;;;;;;;;5012140;28;20034;-51
2021/05/23 08:08:44;;;;;;;3.53;1.10;;;;;;;;;;5016033;28;20432;-49
2021/05/23 08:11:10;;;;;;;4.35;0.90;;;;;;;;;;5027578;28;20022;-49
2021/05/23 08:13:36;;;;;;;1.63;0.80;;;;;;;;;;5026169;28;20061;-49
2021/05/23 08:16:04;;;;;;;5.03;1.08;;;;;;;;;;5026362;28;20061;-49
2021/05/23 08:18:30;;;;;;;1.80;0.90;;;;;;;;;;5021097;28;20537;-50
2021/05/23 08:20:57;;;;;;;1.27;0.63;;;;;;;;;;5021506;28;20037;-49
2021/05/23 08:23:23;;;;;;;2.92;1.08;;;;;;;;;;5025015;28;20026;-49
2021/05/23 08:25:49;;;;;;;1.10;0.60;;;;;;;;;;5022280;28;20041;-51
2021/05/23 08:28:15;;;;;;;1.67;0.70;;;;;;;;;;5025397;28;20038;-49
2021/05/23 08:30:42;;;;;;;1.23;0.50;;;;;;;;;;5021426;28;20052;-49
2021/05/23 08:33:08;;;;;;;2.33;0.80;;;;;;;;;;5014934;28;20033;-50
2021/05/23 08:35:34;;;;;;;1.80;0.70;;;;;;;;;;5024133;28;20057;-48
2021/05/23 08:38:00;;;;;;;3.58;0.93;;;;;;;;;;5029925;28;20029;-49
2021/05/23 08:40:26;;;;;;;1.75;0.85;;;;;;;;;;5019143;28;20069;-50
2021/05/23 08:42:53;;;;;;;1.02;0.70;;;;;;;;;;5029600;28;20033;-52
2021/05/23 08:45:19;;;;;;;2.70;0.88;;;;;;;;;;5028656;28;20052;-54
2021/05/23 08:47:46;;;;;;;1.35;0.80;;;;;;;;;;5019427;28;20041;-49
2021/05/23 08:50:12;;;;;;;2.30;1.00;;;;;;;;;;5021173;28;20127;-49
2021/05/23 08:52:38;;;;;;;4.30;1.05;;;;;;;;;;5022653;28;20401;-48
2021/05/23 08:55:05;;;;;;;2.13;0.93;;;;;;;;;;5015333;28;20026;-48
2021/05/23 08:57:31;;;;;;;1.67;1.00;;;;;;;;;;5021281;28;20029;-48
2021/05/23 08:59:57;;;;;;;3.28;1.27;;;;;;;;;;5026622;28;20378;-49
2021/05/23 09:02:25;;;;;;;1.95;0.85;;;;;;;;;;5018087;28;20099;-49
2021/05/23 09:04:52;;;;;;;2.03;0.88;;;;;;;;;;5025711;28;20155;-51
2021/05/23 09:07:18;;;;;;;2.13;0.73;;;;;;;;;;5021915;28;20030;-51
2021/05/23 09:09:45;;;;;;;1.38;0.65;;;;;;;;;;5017591;28;20049;-49
2021/05/23 09:12:12;;;;;;;3.22;1.02;;;;;;;;;;5029736;28;20025;-49
2021/05/23 09:14:39;;;;;;;1.27;0.52;;;;;;;;;;5025045;28;20626;-49
2021/05/23 09:17:06;;;;;;;1.90;0.68;;;;;;;;;;5022752;28;20025;-48
2021/05/23 09:19:41;;;;;;;1.15;0.60;;;;;;;;;;5014346;28;20536;-49
2021/05/23 09:22:15;;;;;;;3.92;0.52;;;;;;;;;;5011946;28;20029;-49
2021/05/23 09:24:56;;;;;;;0.93;0.43;;;;;;;;;;5015931;28;20041;-49
2021/05/23 09:27:23;;;;;;;1.77;0.50;;;;;;;;;;5008023;28;20037;-48
2021/05/23 09:30:00;;;;;;;1.67;0.60;;;;;;;;;;5020150;28;20072;-48
2021/05/23 09:32:26;;;;;;;0.40;0.38;;;;;;;;;;5033865;28;20030;-49
2021/05/23 09:35:01;;;;;;;1.52;0.30;;;;;;;;;;5014937;28;20351;-49
2021/05/23 09:37:27;;;;;;;0.95;0.20;;;;;;;;;;5026259;28;20489;-50
2021/05/23 09:39:53;;;;;;;0.40;0.20;;;;;;;;;;5023720;28;20109;-49
2021/05/23 09:42:19;;;;;;;2.30;0.30;;;;;;;;;;5018371;28;20425;-49
2021/05/23 09:44:45;;;;;;;0.20;0.10;;;;;;;;;;5015638;28;20030;-49
2021/05/23 09:47:13;;;;;;;1.80;0.10;;;;;;;;;;5013449;28;20034;-49
2021/05/23 09:49:45;;;;;;;1.02;0.40;;;;;;;;;;5013899;28;20078;-49
2021/05/23 09:52:12;;;;;;;0.65;0.30;;;;;;;;;;5011168;28;20109;-50
2021/05/23 09:54:45;;;;;;;5.40;0.30;;;;;;;;;;5022496;28;20136;-50
2021/05/23 09:57:12;;;;;;;0.30;0.20;;;;;;;;;;5012901;28;20042;-48
2021/05/23 09:59:38;;;;;;;2.58;0.40;;;;;;;;;;5026428;28;20061;-48
2021/05/23 10:02:05;;;;;;;0.25;0.25;;;;;;;;;;5008715;28;20065;-48
2021/05/23 10:04:31;;;;;;;2.92;0.43;;;;;;;;;;5013015;28;20029;-49
2021/05/23 10:06:58;;;;;;;1.13;0.57;;;;;;;;;;5014587;28;20041;-49
2021/05/23 10:09:24;;;;;;;2.92;0.40;;;;;;;;;;5013663;28;20033;-49
2021/05/23 10:11:50;;;;;;;0.50;0.30;;;;;;;;;;5018233;28;20385;-48
2021/05/23 10:14:16;;;;;;;2.15;0.43;;;;;;;;;;5027202;28;20108;-49
2021/05/23 10:16:43;;;;;;;1.10;0.43;;;;;;;;;;5032637;28;20064;-51
2021/05/23 10:19:10;;;;;;;2.47;0.50;;;;;;;;;;5026012;28;20428;-49
2021/05/23 10:21:36;;;;;;;2.15;0.47;;;;;;;;;;5015115;28;20151;-48
2021/05/23 10:24:03;;;;;;;2.25;0.50;;;;;;;;;;5030386;28;20124;-51
2021/05/23 10:26:29;;;;;;;0.50;0.40;;;;;;;;;;5027050;28;20042;-50
2021/05/23 10:28:56;;;;;;;0.65;0.40;;;;;;;;;;5028192;28;20046;-51
2021/05/23 10:31:35;;;;;;;0.90;0.63;;;;;;;;;;5022653;28;20657;-49
2021/05/23 10:34:01;;;;;;;0.82;0.60;;;;;;;;;;5020697;28;20029;-49
2021/05/23 10:36:31;;;;;;;0.60;0.47;;;;;;;;;;5013469;28;20025;-50
2021/05/23 10:38:59;;;;;;;1.48;0.40;;;;;;;;;;5024648;28;20044;-49
2021/05/23 10:41:25;;;;;;;1.25;0.40;;;;;;;;;;5022178;28;20024;-50
2021/05/23 10:43:59;;;;;;;0.65;0.47;;;;;;;;;;5027799;28;20025;-48
2021/05/23 10:46:25;;;;;;;1.80;0.60;;;;;;;;;;5028576;28;20401;-48
2021/05/23 10:48:53;;;;;;;1.20;0.50;;;;;;;;;;5010177;28;20716;-49
2021/05/23 10:51:20;;;;;;;0.50;0.30;;;;;;;;;;5031694;28;20022;-49
2021/05/23 10:53:46;;;;;;;0.73;0.43;;;;;;;;;;5026801;28;20033;-49
2021/05/23 10:56:31;;;;;;;0.85;0.35;;;;;;;;;;5026165;28;20099;-49
2021/05/23 10:59:01;;;;;;;0.77;0.57;;;;;;;;;;5023341;28;20029;-52
2021/05/23 11:01:47;;;;;;;0.88;0.65;;;;;;;;;;5022594;28;20025;-52
2021/05/23 11:04:17;;;;;;;0.60;0.57;;;;;;;;;;5025565;28;20036;-49
2021/05/23 11:06:44;;;;;;;0.98;0.52;;;;;;;;;;5011077;28;20104;-48
2021/05/23 11:09:11;;;;;;;1.10;0.68;;;;;;;;;;5025912;28;20034;-49
2021/05/23 11:11:37;;;;;;;1.45;0.75;;;;;;;;;;5018594;28;20370;-49
2021/05/23 11:14:23;;;;;;;1.30;0.57;;;;;;;;;;5014565;28;20030;-49
2021/05/23 11:16:50;;;;;;;2.85;0.50;;;;;;;;;;5021849;28;20454;-49
2021/05/23 11:19:16;;;;;;;3.55;0.60;;;;;;;;;;5021964;28;20099;-49
2021/05/23 11:21:43;;;;;;;0.95;0.65;;;;;;;;;;5025894;28;20104;-50
2021/05/23 11:24:10;;;;;;;3.22;0.57;;;;;;;;;;5015910;28;20386;-49
2021/05/23 11:26:36;;;;;;;2.28;0.40;;;;;;;;;;5023177;28;20548;-50
2021/05/23 11:29:03;;;;;;;0.93;0.77;;;;;;;;;;5013671;28;20052;-50
2021/05/23 11:31:33;;;;;;;1.95;0.50;;;;;;;;;;5024597;28;20037;-48
2021/05/23 11:33:59;;;;;;;0.50;0.40;;;;;;;;;;5017630;28;20077;-49
2021/05/23 11:36:27;;;;;;;2.42;0.55;;;;;;;;;;5020109;28;20018;-49
2021/05/23 11:38:57;;;;;;;0.73;0.40;;;;;;;;;;5022979;28;20045;-48
2021/05/23 11:41:41;;;;;;;0.45;0.30;;;;;;;;;;5002005;28;20057;-49
2021/05/23 11:44:10;;;;;;;1.13;0.30;;;;;;;;;;5022107;28;20065;-49
2021/05/23 11:46:37;;;;;;;0.65;0.50;;;;;;;;;;5012092;28;20024;-49
2021/05/23 11:49:03;;;;;;;0.50;0.40;;;;;;;;;;5029791;28;20038;-50
2021/05/23 11:51:30;;;;;;;1.40;0.30;;;;;;;;;;5031121;28;20025;-49
2021/05/23 11:53:58;;;;;;;0.65;0.28;;;;;;;;;;5016193;28;20053;-49
2021/05/23 11:56:25;;;;;;;0.73;0.40;;;;;;;;;;5028827;28;20457;-49
2021/05/23 11:58:54;;;;;;;0.85;0.40;;;;;;;;;;5026269;28;20058;-49
2021/05/23 12:01:27;;;;;;;0.25;0.20;;;;;;;;;;5016619;28;20138;-51
2021/05/23 12:04:05;;;;;;;0.70;0.30;;;;;;;;;;5027239;28;20412;-49
2021/05/23 12:06:32;;;;;;;0.68;0.47;;;;;;;;;;5029136;28;20029;-49
2021/05/23 12:09:05;;;;;;;1.55;0.50;;;;;;;;;;5018868;28;20032;-48
2021/05/23 12:11:38;;;;;;;3.15;0.50;;;;;;;;;;5025475;28;20109;-49
2021/05/23 12:14:04;;;;;;;0.30;0.30;;;;;;;;;;5028321;28;20591;-48
2021/05/23 12:16:30;;;;;;;0.80;0.40;;;;;;;;;;5015888;28;20281;-48
2021/05/23 12:18:57;;;;;;;1.70;0.50;;;;;;;;;;5023962;28;20030;-48
2021/05/23 12:21:29;;;;;;;0.50;0.20;;;;;;;;;;5032108;28;20108;-49
2021/05/23 12:23:56;;;;;;;0.50;0.30;;;;;;;;;;5016615;28;20417;-49
2021/05/23 12:26:23;;;;;;;0.45;0.38;;;;;;;;;;5015168;28;20489;-52
2021/05/23 12:28:51;;;;;;;0.85;0.35;;;;;;;;;;5026371;28;20121;-52
2021/05/23 12:31:18;;;;;;;2.38;0.30;;;;;;;;;;5015540;28;20430;-51
2021/05/23 12:33:59;;;;;;;0.25;0.10;;;;;;;;;;5027239;28;20108;-55
2021/05/23 12:36:26;;;;;;;0.95;0.30;;;;;;;;;;5030905;28;20080;-50
2021/05/23 12:38:59;;;;;;;1.02;0.20;;;;;;;;;;5018774;28;20366;-50
2021/05/23 12:41:44;;;;;;;0.20;0.20;;;;;;;;;;5030501;28;20381;-49
2021/05/23 12:44:24;;;;;;;0.50;0.20;;;;;;;;;;5022904;28;20030;-50
2021/05/23 12:46:50;;;;;;;0.57;0.30;;;;;;;;;;5020311;28;20457;-49
2021/05/23 12:49:17;;;;;;;0.43;0.30;;;;;;;;;;5025077;28;20033;-49
2021/05/23 12:51:44;;;;;;;1.30;0.10;;;;;;;;;;5022485;28;20029;-49
2021/05/23 12:54:10;;;;;;;0.63;0.20;;;;;;;;;;5018235;28;20030;-49
2021/05/23 12:56:36;;;;;;;0.20;0.17;;;;;;;;;;5021080;28;20041;-49
2021/05/23 12:59:04;;;;;;;0.30;0.20;;;;;;;;;;5014708;28;20022;-49
2021/05/23 13:01:41;;;;;;;3.30;0.38;;;;;;;;;;5023300;28;20028;-50
2021/05/23 13:04:08;;;;;;;4.78;0.47;;;;;;;;;;5025393;28;20377;-49
2021/05/23 13:06:46;;;;;;;0.30;0.30;;;;;;;;;;5021903;28;20155;-49
2021/05/23 13:09:12;;;;;;;1.27;0.47;;;;;;;;;;5029825;28;20040;-49
2021/05/23 13:11:47;;;;;;;0.45;0.30;;;;;;;;;;5025450;28;20121;-49
2021/05/23 13:14:13;;;;;;;0.95;0.45;;;;;;;;;;5011101;28;20026;-49
2021/05/23 13:16:46;;;;;;;0.52;0.40;;;;;;;;;;5013766;28;20030;-52
2021/05/23 13:19:12;;;;;;;1.38;0.30;;;;;;;;;;5021084;28;20041;-50
2021/05/23 13:21:39;;;;;;;0.32;0.30;;;;;;;;;;5021770;28;20446;-51
2021/05/23 13:24:05;;;;;;;0.60;0.30;;;;;;;;;;5026494;28;20033;-50
2021/05/23 13:26:31;;;;;;;0.70;0.50;;;;;;;;;;5018672;28;20037;-51
2021/05/23 13:28:57;;;;;;;0.70;0.50;;;;;;;;;;5028195;28;20042;-55
2021/05/23 13:31:22;;;;;;;0.45;0.38;;;;;;;;;;5014360;28;20030;-53
2021/05/23 13:33:48;;;;;;;0.20;0.20;;;;;;;;;;5025085;28;20029;-51
2021/05/23 13:36:15;;;;;;;0.38;0.22;;;;;;;;;;5033593;28;20431;-54
2021/05/23 13:38:42;;;;;;;1.48;0.20;;;;;;;;;;5018434;28;20029;-52
2021/05/23 13:41:08;;;;;;;1.65;0.70;;;;;;;;;;5019667;28;20030;-50
2021/05/23 13:43:34;;;;;;;1.35;0.65;;;;;;;;;;5031498;28;20079;-52
2021/05/23 13:46:01;;;;;;;0.50;0.38;;;;;;;;;;5017540;28;20026;-49
2021/05/23 13:48:27;;;;;;;0.80;0.30;;;;;;;;;;5014556;28;20036;-47
2021/05/23 13:50:53;;;;;;;0.40;0.40;;;;;;;;;;5017938;28;20032;-50
2021/05/23 13:53:19;;;;;;;0.60;0.50;;;;;;;;;;5017708;28;20454;-53
2021/05/23 13:55:45;;;;;;;1.27;0.70;;;;;;;;;;5030604;28;20034;-50
2021/05/23 13:58:11;;;;;;;1.83;0.75;;;;;;;;;;5020536;28;20044;-50
2021/05/23 14:00:38;;;;;;;0.70;0.40;;;;;;;;;;5001375;28;20018;-55
2021/05/23 14:03:14;;;;;;;1.00;0.52;;;;;;;;;;5021596;28;20474;-53
2021/05/23 14:05:41;;;;;;;3.35;0.65;;;;;;;;;;5016162;28;20053;-54
2021/05/23 14:08:07;;;;;;;2.17;0.95;;;;;;;;;;5023689;28;20076;-51
2021/05/23 14:10:32;;;;;;;0.80;0.60;;;;;;;;;;5018412;28;20428;-55
2021/05/23 14:12:58;;;;;;;1.67;0.73;;;;;;;;;;5014079;28;20034;-54
2021/05/23 14:15:24;;;;;;;1.00;0.50;;;;;;;;;;5018710;28;20671;-51
2021/05/23 14:17:50;;;;;;;0.80;0.60;;;;;;;;;;5017285;28;20370;-53
2021/05/23 14:20:21;;;;;;;0.50;0.50;;;;;;;;;;5025882;28;20041;-52
2021/05/23 14:22:47;;;;;;;1.48;0.60;;;;;;;;;;5020021;28;20060;-55
2021/05/23 14:25:13;;;;;;;1.60;0.50;;;;;;;;;;5019088;28;20112;-51
2021/05/23 14:27:39;;;;;;;1.65;0.30;;;;;;;;;;5027278;28;20108;-55
2021/05/23 14:30:06;;;;;;;0.57;0.20;;;;;;;;;;5031501;28;20052;-54
2021/05/23 14:32:32;;;;;;;0.65;0.20;;;;;;;;;;5024162;28;20026;-52
2021/05/23 14:34:58;;;;;;;0.40;0.20;;;;;;;;;;5014450;28;20030;-53
2021/05/23 14:37:24;;;;;;;0.40;0.30;;;;;;;;;;5022346;28;20025;-53
2021/05/23 14:39:50;;;;;;;0.68;0.20;;;;;;;;;;5023805;28;20030;-54
2021/05/23 14:42:16;;;;;;;0.50;0.20;;;;;;;;;;5016977;28;20018;-53
2021/05/23 14:44:42;;;;;;;1.00;0.25;;;;;;;;;;5020397;28;20036;-53